Terminal Aerodrome Forecast
Issued by NWS Wakefield, VA

Home | Current Version | Previous Version | Text Only | Print | Product List | Glossary On
Versions: 1 2 3 4 5 6 7 8 9 10 11 12 13 14 15 16 17
000
FTUS41 KAKQ 170500
TAFRIC
TAF
KRIC 170538Z 1706/1806 05005KT P6SM SKC
     FM171200 07008KT P6SM SKC
     FM171500 08008KT P6SM SCT035
     FM180000 07005KT P6SM SCT035=

USA.gov is the U.S. government's official web portal to all federal, state and local government web resources and services.